Time;durP1;ratioP1;P1;durP2;ratioP2;P2;SDS_P1;SDS_P2;PMS_P1;PMS_P2;Temp;Humidity;BMP_temperature;BMP_pressure;BME280_temperature;BME280_humidity;BME280_pressure;Samples;Min_cycle;Max_cycle;Signal;HPM_P1;HPM_P2
2021/11/23 13:10:47;;;;;;;4.58;0.50;;;;;;;;;;1851237;74;57243;-29
2021/11/23 13:13:16;;;;;;;0.50;0.50;;;;;;;;;;1817161;76;26338;-26
2021/11/23 13:15:45;;;;;;;0.72;0.65;;;;;;;;;;1866195;76;26360;-27
2021/11/23 13:18:13;;;;;;;0.60;0.60;;;;;;;;;;1865663;76;26290;-31
2021/11/23 13:20:45;;;;;;;1.67;0.70;;;;;;;;;;1870212;76;26364;-28
2021/11/23 13:23:27;;;;;;;1.60;0.72;;;;;;;;;;1848563;76;28567;-28
2021/11/23 13:26:06;;;;;;;2.35;0.80;;;;;;;;;;1869687;76;26279;-29
2021/11/23 13:28:37;;;;;;;0.80;0.78;;;;;;;;;;1868055;76;26249;-28
2021/11/23 13:31:05;;;;;;;1.20;0.90;;;;;;;;;;1871065;76;26363;-30
2021/11/23 13:33:34;;;;;;;0.80;0.80;;;;;;;;;;1866525;76;26377;-30
2021/11/23 13:36:03;;;;;;;0.80;0.80;;;;;;;;;;1867813;76;26587;-31
2021/11/23 13:38:32;;;;;;;0.80;0.80;;;;;;;;;;1869851;76;26254;-29
2021/11/23 13:41:00;;;;;;;3.33;1.00;;;;;;;;;;1865831;76;26869;-30
2021/11/23 13:43:28;;;;;;;0.82;0.82;;;;;;;;;;1867295;76;26297;-31
2021/11/23 13:46:03;;;;;;;1.55;0.90;;;;;;;;;;1863389;76;26315;-29
2021/11/23 13:48:31;;;;;;;1.00;1.00;;;;;;;;;;1862665;76;26307;-32
2021/11/23 13:51:00;;;;;;;0.90;0.90;;;;;;;;;;1866136;76;22340;-33
2021/11/23 13:53:27;;;;;;;0.90;0.90;;;;;;;;;;1854556;76;29296;-29
2021/11/23 13:55:56;;;;;;;1.12;1.02;;;;;;;;;;1872543;76;26246;-31
2021/11/23 13:58:23;;;;;;;2.60;0.93;;;;;;;;;;1856667;76;28145;-30
2021/11/23 14:00:50;;;;;;;1.00;1.00;;;;;;;;;;1867094;76;26743;-31
2021/11/23 14:03:20;;;;;;;0.72;0.72;;;;;;;;;;1868443;76;26263;-30
2021/11/23 14:05:50;;;;;;;2.62;0.93;;;;;;;;;;1833996;76;28737;-31
2021/11/23 14:08:23;;;;;;;0.85;0.80;;;;;;;;;;1841548;77;26819;-32
2021/11/23 14:10:52;;;;;;;1.45;1.00;;;;;;;;;;1823648;77;26356;-30
2021/11/23 14:13:20;;;;;;;0.93;0.93;;;;;;;;;;1826007;78;26276;-29
2021/11/23 14:15:49;;;;;;;0.60;0.60;;;;;;;;;;1825912;78;26319;-28
2021/11/23 14:18:18;;;;;;;0.90;0.80;;;;;;;;;;1822840;78;26286;-28
2021/11/23 14:20:47;;;;;;;0.50;0.50;;;;;;;;;;1821162;78;26577;-28
2021/11/23 14:23:19;;;;;;;0.82;0.80;;;;;;;;;;1829129;78;26320;-29
2021/11/23 14:25:49;;;;;;;0.80;0.80;;;;;;;;;;1831967;78;26312;-31
2021/11/23 14:28:16;;;;;;;0.75;0.75;;;;;;;;;;1830659;78;26280;-30
2021/11/23 14:30:44;;;;;;;0.65;0.65;;;;;;;;;;1827103;78;26358;-29
2021/11/23 14:33:11;;;;;;;0.93;0.65;;;;;;;;;;1827906;78;26355;-29
2021/11/23 14:35:38;;;;;;;0.68;0.68;;;;;;;;;;1821032;78;28204;-29
2021/11/23 14:38:05;;;;;;;0.50;0.50;;;;;;;;;;1819736;78;26289;-31
2021/11/23 14:40:33;;;;;;;0.45;0.45;;;;;;;;;;1832719;78;26311;-30
2021/11/23 14:43:00;;;;;;;0.60;0.60;;;;;;;;;;1817198;78;26261;-31
2021/11/23 14:45:28;;;;;;;0.70;0.50;;;;;;;;;;1818611;78;26283;-28
2021/11/23 14:47:57;;;;;;;0.70;0.70;;;;;;;;;;1818991;78;26852;-28
2021/11/23 14:50:24;;;;;;;0.45;0.45;;;;;;;;;;1825234;78;26294;-29
2021/11/23 14:52:52;;;;;;;1.77;0.50;;;;;;;;;;1820008;78;26348;-27
2021/11/23 14:55:19;;;;;;;0.50;0.50;;;;;;;;;;1814236;78;26347;-30
2021/11/23 14:57:46;;;;;;;0.60;0.60;;;;;;;;;;1827375;78;27509;-29
2021/11/23 15:00:17;;;;;;;0.50;0.50;;;;;;;;;;1826596;78;26285;-28
2021/11/23 15:02:43;;;;;;;0.50;0.50;;;;;;;;;;1822785;78;26281;-28
2021/11/23 15:05:10;;;;;;;0.40;0.40;;;;;;;;;;1824551;78;26882;-30
2021/11/23 15:07:38;;;;;;;0.47;0.47;;;;;;;;;;1820442;78;26300;-29
2021/11/23 15:10:06;;;;;;;0.50;0.50;;;;;;;;;;1830454;77;26378;-29
2021/11/23 15:12:34;;;;;;;0.47;0.47;;;;;;;;;;1839126;77;26762;-28
2021/11/23 15:15:02;;;;;;;0.40;0.40;;;;;;;;;;1834274;77;26251;-29
2021/11/23 15:17:29;;;;;;;0.85;0.42;;;;;;;;;;1838698;77;27512;-29
2021/11/23 15:19:56;;;;;;;0.42;0.40;;;;;;;;;;1836920;77;26292;-30
2021/11/23 15:22:24;;;;;;;1.60;0.50;;;;;;;;;;1824020;77;26294;-29
2021/11/23 15:24:51;;;;;;;0.40;0.40;;;;;;;;;;1837354;77;26311;-29
2021/11/23 15:27:18;;;;;;;0.80;0.47;;;;;;;;;;1843037;77;26260;-29
2021/11/23 15:29:46;;;;;;;0.35;0.35;;;;;;;;;;1833625;77;26280;-29
2021/11/23 15:32:13;;;;;;;0.50;0.50;;;;;;;;;;1837957;77;26245;-29
2021/11/23 15:34:40;;;;;;;0.55;0.50;;;;;;;;;;1822571;77;26336;-28
2021/11/23 15:37:08;;;;;;;0.30;0.30;;;;;;;;;;1833223;77;26298;-29
2021/11/23 15:39:35;;;;;;;1.17;0.47;;;;;;;;;;1842167;77;26308;-29
2021/11/23 15:42:02;;;;;;;1.50;0.53;;;;;;;;;;1827225;77;26329;-28
2021/11/23 15:44:30;;;;;;;1.87;0.50;;;;;;;;;;1839067;77;26283;-30
2021/11/23 15:46:57;;;;;;;0.40;0.40;;;;;;;;;;1839772;77;26417;-29
2021/11/23 15:49:25;;;;;;;0.40;0.40;;;;;;;;;;1844917;77;26771;-28
2021/11/23 15:51:53;;;;;;;0.40;0.40;;;;;;;;;;1842131;77;26319;-28
2021/11/23 15:54:21;;;;;;;0.42;0.42;;;;;;;;;;1841965;77;26374;-28
2021/11/23 15:56:48;;;;;;;0.40;0.40;;;;;;;;;;1842030;77;26354;-29
2021/11/23 15:59:16;;;;;;;0.50;0.50;;;;;;;;;;1830933;77;26385;-28
2021/11/23 16:01:43;;;;;;;1.45;0.50;;;;;;;;;;1841218;77;26538;-29
2021/11/23 16:04:10;;;;;;;0.40;0.40;;;;;;;;;;1841059;77;26382;-29
2021/11/23 16:06:38;;;;;;;0.47;0.47;;;;;;;;;;1826376;77;26829;-28
2021/11/23 16:09:06;;;;;;;0.70;0.42;;;;;;;;;;1836443;77;26295;-29
2021/11/23 16:11:33;;;;;;;0.50;0.50;;;;;;;;;;1824111;77;26303;-29
2021/11/23 16:14:02;;;;;;;0.72;0.50;;;;;;;;;;1827396;78;26429;-28
2021/11/23 16:16:30;;;;;;;1.75;0.50;;;;;;;;;;1825809;78;26369;-29
2021/11/23 16:18:58;;;;;;;0.65;0.50;;;;;;;;;;1831758;78;26362;-29
2021/11/23 16:21:27;;;;;;;0.40;0.40;;;;;;;;;;1828283;78;26240;-29
2021/11/23 16:23:55;;;;;;;0.40;0.40;;;;;;;;;;1828664;78;26665;-29
2021/11/23 16:26:25;;;;;;;1.15;0.50;;;;;;;;;;1836181;78;26315;-29
2021/11/23 16:28:53;;;;;;;0.65;0.50;;;;;;;;;;1831356;78;26808;-29
2021/11/23 16:31:21;;;;;;;1.55;0.50;;;;;;;;;;1820205;78;26303;-29
2021/11/23 16:33:48;;;;;;;0.53;0.53;;;;;;;;;;1829328;78;26274;-29
2021/11/23 16:36:16;;;;;;;0.50;0.50;;;;;;;;;;1827885;78;26375;-29
2021/11/23 16:38:44;;;;;;;0.55;0.47;;;;;;;;;;1816369;78;26807;-28
2021/11/23 16:41:11;;;;;;;0.40;0.40;;;;;;;;;;1831742;78;26265;-29
2021/11/23 16:43:39;;;;;;;0.72;0.35;;;;;;;;;;1833652;78;26283;-29
2021/11/23 16:46:10;;;;;;;0.80;0.50;;;;;;;;;;1828332;78;26334;-29
2021/11/23 16:48:35;;;;;;;1.72;0.40;;;;;;;;;;1828529;78;26261;-29
2021/11/23 16:51:03;;;;;;;0.40;0.40;;;;;;;;;;1822225;78;26272;-29
2021/11/23 16:53:30;;;;;;;0.70;0.45;;;;;;;;;;1821407;78;26269;-29
2021/11/23 16:56:00;;;;;;;1.40;0.47;;;;;;;;;;1820158;78;26280;-29
2021/11/23 16:58:28;;;;;;;0.75;0.60;;;;;;;;;;1822562;78;26285;-29
2021/11/23 17:00:56;;;;;;;1.20;0.55;;;;;;;;;;1817797;78;26379;-29
2021/11/23 17:03:28;;;;;;;0.30;0.30;;;;;;;;;;1830029;78;26708;-29
2021/11/23 17:05:57;;;;;;;0.55;0.55;;;;;;;;;;1826360;78;26968;-28
2021/11/23 17:08:24;;;;;;;0.65;0.62;;;;;;;;;;1813086;78;26718;-29
2021/11/23 17:10:52;;;;;;;1.27;0.62;;;;;;;;;;1821174;77;26307;-29
2021/11/23 17:13:22;;;;;;;0.50;0.50;;;;;;;;;;1845443;77;26351;-29
2021/11/23 17:15:49;;;;;;;1.42;0.60;;;;;;;;;;1853527;77;26571;-29
2021/11/23 17:18:16;;;;;;;0.60;0.60;;;;;;;;;;1849822;77;26271;-29
2021/11/23 17:20:43;;;;;;;1.00;0.60;;;;;;;;;;1852333;77;26216;-29
2021/11/23 17:23:14;;;;;;;0.80;0.45;;;;;;;;;;1854043;77;26354;-29
2021/11/23 17:25:42;;;;;;;1.32;0.57;;;;;;;;;;1845648;77;26212;-29
2021/11/23 17:28:10;;;;;;;1.37;0.60;;;;;;;;;;1838040;77;26293;-30
2021/11/23 17:30:37;;;;;;;0.80;0.57;;;;;;;;;;1846654;77;26296;-28
2021/11/23 17:33:05;;;;;;;0.60;0.60;;;;;;;;;;1846902;77;26861;-30
2021/11/23 17:35:34;;;;;;;0.53;0.53;;;;;;;;;;1852856;77;26248;-29
2021/11/23 17:38:02;;;;;;;2.62;0.60;;;;;;;;;;1848768;77;26209;-29
2021/11/23 17:40:31;;;;;;;1.80;0.60;;;;;;;;;;1851424;77;26366;-28
2021/11/23 17:42:58;;;;;;;1.65;0.70;;;;;;;;;;1847868;77;26592;-30
2021/11/23 17:45:26;;;;;;;1.27;0.68;;;;;;;;;;1836077;77;26276;-29
2021/11/23 17:47:54;;;;;;;0.60;0.60;;;;;;;;;;1852038;77;26809;-29
2021/11/23 17:50:22;;;;;;;1.02;0.50;;;;;;;;;;1851105;77;26779;-29
2021/11/23 17:52:50;;;;;;;0.65;0.65;;;;;;;;;;1839668;77;26311;-30
2021/11/23 17:55:19;;;;;;;2.05;0.70;;;;;;;;;;1847952;77;26299;-29
2021/11/23 17:57:48;;;;;;;1.87;0.70;;;;;;;;;;1840571;77;26245;-30
2021/11/23 18:00:17;;;;;;;0.60;0.60;;;;;;;;;;1849898;77;26288;-29
2021/11/23 18:02:45;;;;;;;0.70;0.70;;;;;;;;;;1842408;77;26963;-30
2021/11/23 18:05:12;;;;;;;0.70;0.70;;;;;;;;;;1832273;77;26337;-29
2021/11/23 18:07:40;;;;;;;0.72;0.60;;;;;;;;;;1833794;77;26256;-29
2021/11/23 18:10:07;;;;;;;0.60;0.60;;;;;;;;;;1837373;77;26296;-29
2021/11/23 18:12:35;;;;;;;1.52;0.70;;;;;;;;;;1828561;77;26376;-29
2021/11/23 18:15:02;;;;;;;0.50;0.47;;;;;;;;;;1814889;78;26683;-29
2021/11/23 18:17:30;;;;;;;5.10;0.75;;;;;;;;;;1810835;78;26368;-29
2021/11/23 18:19:58;;;;;;;1.12;0.60;;;;;;;;;;1823223;78;26300;-29
2021/11/23 18:22:26;;;;;;;0.65;0.65;;;;;;;;;;1825840;78;26308;-30
2021/11/23 18:24:53;;;;;;;0.72;0.62;;;;;;;;;;1829201;78;26508;-30
2021/11/23 18:27:20;;;;;;;0.62;0.55;;;;;;;;;;1808246;78;26294;-28
2021/11/23 18:29:48;;;;;;;0.65;0.60;;;;;;;;;;1816989;78;26343;-29
2021/11/23 18:32:15;;;;;;;0.95;0.60;;;;;;;;;;1811938;78;26746;-29
2021/11/23 18:34:46;;;;;;;0.70;0.70;;;;;;;;;;1822155;78;26382;-28
2021/11/23 18:37:15;;;;;;;0.50;0.50;;;;;;;;;;1831945;78;26266;-28
2021/11/23 18:39:43;;;;;;;0.57;0.57;;;;;;;;;;1827008;78;26775;-29
2021/11/23 18:42:10;;;;;;;0.70;0.70;;;;;;;;;;1823920;78;26347;-29
2021/11/23 18:44:38;;;;;;;0.70;0.68;;;;;;;;;;1820119;78;26810;-29
2021/11/23 18:47:05;;;;;;;0.70;0.70;;;;;;;;;;1828019;78;26252;-29
2021/11/23 18:49:32;;;;;;;0.60;0.60;;;;;;;;;;1828734;78;26347;-29
2021/11/23 18:52:00;;;;;;;0.90;0.70;;;;;;;;;;1828007;78;26406;-29
2021/11/23 18:54:28;;;;;;;2.12;0.70;;;;;;;;;;1817185;78;26292;-29
2021/11/23 18:56:55;;;;;;;0.60;0.60;;;;;;;;;;1817336;78;26298;-29
2021/11/23 18:59:23;;;;;;;0.70;0.70;;;;;;;;;;1822620;78;26818;-29
2021/11/23 19:01:51;;;;;;;1.50;0.72;;;;;;;;;;1825088;78;26760;-30
2021/11/23 19:04:18;;;;;;;1.52;0.60;;;;;;;;;;1816505;78;26374;-28
2021/11/23 19:06:45;;;;;;;1.00;1.00;;;;;;;;;;1833588;78;26285;-29
2021/11/23 19:09:15;;;;;;;1.80;0.93;;;;;;;;;;1829177;78;26300;-30
2021/11/23 19:11:42;;;;;;;4.17;1.02;;;;;;;;;;1829074;78;26842;-30
2021/11/23 19:14:10;;;;;;;2.90;0.98;;;;;;;;;;1819037;78;26341;-28
2021/11/23 19:16:37;;;;;;;4.53;0.70;;;;;;;;;;1824856;78;26729;-29
2021/11/23 19:19:05;;;;;;;2.75;0.72;;;;;;;;;;1829650;78;26257;-29
2021/11/23 19:21:32;;;;;;;5.50;0.80;;;;;;;;;;1821137;78;26275;-29
2021/11/23 19:23:59;;;;;;;3.98;0.70;;;;;;;;;;1829468;78;26210;-29
2021/11/23 19:26:27;;;;;;;9.00;0.90;;;;;;;;;;1828941;78;26296;-28
2021/11/23 19:28:58;;;;;;;2.10;0.90;;;;;;;;;;1828100;78;26701;-30
2021/11/23 19:31:23;;;;;;;4.25;0.80;;;;;;;;;;1822451;77;26818;-29
2021/11/23 19:33:50;;;;;;;3.50;0.78;;;;;;;;;;1827691;78;26268;-29
2021/11/23 19:36:18;;;;;;;3.72;0.90;;;;;;;;;;1821478;78;26268;-29
2021/11/23 19:38:46;;;;;;;5.30;1.17;;;;;;;;;;1826671;78;26268;-30
2021/11/23 19:41:15;;;;;;;1.12;0.90;;;;;;;;;;1830275;78;26323;-29
2021/11/23 19:43:43;;;;;;;3.02;0.68;;;;;;;;;;1829035;78;26980;-30
2021/11/23 19:46:10;;;;;;;4.33;0.80;;;;;;;;;;1815554;78;26261;-30
2021/11/23 19:48:37;;;;;;;2.90;0.75;;;;;;;;;;1813757;78;26369;-29
2021/11/23 19:51:05;;;;;;;1.80;0.60;;;;;;;;;;1828715;78;26272;-29
2021/11/23 19:53:32;;;;;;;1.67;0.80;;;;;;;;;;1831294;78;26316;-29
2021/11/23 19:56:00;;;;;;;3.87;0.80;;;;;;;;;;1820894;78;26293;-30
2021/11/23 19:58:29;;;;;;;1.30;0.75;;;;;;;;;;1823490;78;26814;-29
2021/11/23 20:00:57;;;;;;;1.85;0.60;;;;;;;;;;1835663;78;26285;-29
2021/11/23 20:03:26;;;;;;;2.60;0.60;;;;;;;;;;1824375;78;26362;-29
2021/11/23 20:05:53;;;;;;;2.40;0.70;;;;;;;;;;1834969;78;26288;-29
2021/11/23 20:08:21;;;;;;;2.02;0.70;;;;;;;;;;1830398;78;26265;-30
2021/11/23 20:10:49;;;;;;;0.55;0.55;;;;;;;;;;1815942;78;26360;-29
2021/11/23 20:13:16;;;;;;;3.02;0.72;;;;;;;;;;1830725;78;26760;-29
2021/11/23 20:15:43;;;;;;;2.90;0.80;;;;;;;;;;1827550;78;26273;-29
2021/11/23 20:18:11;;;;;;;1.02;0.68;;;;;;;;;;1827572;78;26328;-29
2021/11/23 20:20:39;;;;;;;3.15;0.90;;;;;;;;;;1819434;78;26530;-29
2021/11/23 20:23:06;;;;;;;1.72;0.68;;;;;;;;;;1824772;78;26297;-29
2021/11/23 20:25:34;;;;;;;2.37;0.60;;;;;;;;;;1829563;78;26803;-28
2021/11/23 20:28:01;;;;;;;1.65;0.80;;;;;;;;;;1818726;78;26406;-29
2021/11/23 20:30:29;;;;;;;0.68;0.68;;;;;;;;;;1820747;78;26342;-29
2021/11/23 20:32:58;;;;;;;0.60;0.60;;;;;;;;;;1832744;78;26274;-29
2021/11/23 20:35:25;;;;;;;2.80;0.82;;;;;;;;;;1826671;78;26695;-29
2021/11/23 20:37:53;;;;;;;3.02;0.68;;;;;;;;;;1825469;78;26351;-29
2021/11/23 20:40:22;;;;;;;1.37;0.80;;;;;;;;;;1831143;78;26323;-29
2021/11/23 20:42:50;;;;;;;2.02;0.72;;;;;;;;;;1826845;78;26285;-29
2021/11/23 20:45:17;;;;;;;2.25;0.60;;;;;;;;;;1816082;78;26899;-29
2021/11/23 20:47:50;;;;;;;3.37;0.65;;;;;;;;;;1831931;77;26901;-29
2021/11/23 20:50:18;;;;;;;1.82;0.50;;;;;;;;;;1831419;77;26780;-30
2021/11/23 20:52:45;;;;;;;0.78;0.78;;;;;;;;;;1824290;77;26390;-29
2021/11/23 20:55:13;;;;;;;0.78;0.57;;;;;;;;;;1828568;77;26277;-28
2021/11/23 20:57:41;;;;;;;0.60;0.60;;;;;;;;;;1823321;77;26371;-29
2021/11/23 21:00:10;;;;;;;2.42;0.70;;;;;;;;;;1828569;77;26997;-29
2021/11/23 21:02:37;;;;;;;1.67;0.62;;;;;;;;;;1827862;77;26217;-29
2021/11/23 21:05:05;;;;;;;1.32;0.50;;;;;;;;;;1826064;77;26795;-29
2021/11/23 21:07:32;;;;;;;1.47;0.88;;;;;;;;;;1829063;77;26316;-29
2021/11/23 21:10:00;;;;;;;0.50;0.50;;;;;;;;;;1823087;78;26380;-29
2021/11/23 21:12:27;;;;;;;1.57;0.60;;;;;;;;;;1823749;78;26346;-29
2021/11/23 21:14:54;;;;;;;0.75;0.70;;;;;;;;;;1824196;77;26326;-29
2021/11/23 21:17:22;;;;;;;0.88;0.70;;;;;;;;;;1827810;78;26272;-29
2021/11/23 21:19:49;;;;;;;0.50;0.50;;;;;;;;;;1815180;78;26727;-29
2021/11/23 21:22:17;;;;;;;2.05;0.60;;;;;;;;;;1794283;78;26284;-29
2021/11/23 21:24:44;;;;;;;1.10;0.53;;;;;;;;;;1825837;78;26284;-30
2021/11/23 21:27:13;;;;;;;0.60;0.60;;;;;;;;;;1834133;78;26350;-29
2021/11/23 21:29:40;;;;;;;0.85;0.70;;;;;;;;;;1819982;78;26297;-29
2021/11/23 21:32:08;;;;;;;0.68;0.68;;;;;;;;;;1816677;78;26751;-29
2021/11/23 21:34:37;;;;;;;1.27;0.75;;;;;;;;;;1829153;78;26273;-29
2021/11/23 21:39:57;;;;;;;1.00;0.60;;;;;;;;;;1823179;78;26308;-29
2021/11/23 21:42:25;;;;;;;1.25;0.60;;;;;;;;;;1819426;78;26716;-30
2021/11/23 21:45:03;;;;;;;0.50;0.50;;;;;;;;;;1826076;78;26300;-29
2021/11/23 21:47:23;;;;;;;0.50;0.50;;;;;;;;;;1832577;78;26453;-29
2021/11/23 21:49:53;;;;;;;0.90;0.60;;;;;;;;;;1825680;78;26290;-29
2021/11/23 21:52:19;;;;;;;0.93;0.70;;;;;;;;;;1816242;78;26315;-29
2021/11/23 21:54:47;;;;;;;0.90;0.60;;;;;;;;;;1835957;78;26289;-30
2021/11/23 21:57:16;;;;;;;0.42;0.40;;;;;;;;;;1830609;78;26338;-28
2021/11/23 21:59:44;;;;;;;1.27;0.47;;;;;;;;;;1827514;78;26772;-30
2021/11/23 22:02:11;;;;;;;0.93;0.60;;;;;;;;;;1830450;78;26284;-29
2021/11/23 22:04:39;;;;;;;0.57;0.50;;;;;;;;;;1828471;78;26371;-29
2021/11/23 22:07:06;;;;;;;0.40;0.40;;;;;;;;;;1833669;78;26354;-29
2021/11/23 22:09:33;;;;;;;0.53;0.53;;;;;;;;;;1816440;78;26357;-29
2021/11/23 22:12:00;;;;;;;1.15;0.55;;;;;;;;;;1833396;78;26358;-30
2021/11/23 22:14:28;;;;;;;0.60;0.60;;;;;;;;;;1823595;77;25738;-29
2021/11/23 22:16:56;;;;;;;0.55;0.55;;;;;;;;;;1842630;77;26296;-29
2021/11/23 22:19:23;;;;;;;0.50;0.50;;;;;;;;;;1829709;77;26275;-29
2021/11/23 22:21:51;;;;;;;0.50;0.50;;;;;;;;;;1821885;77;26370;-29
2021/11/23 22:24:19;;;;;;;0.60;0.60;;;;;;;;;;1834506;77;26341;-29
2021/11/23 22:26:46;;;;;;;0.40;0.40;;;;;;;;;;1833043;77;26283;-29
2021/11/23 22:29:13;;;;;;;0.42;0.42;;;;;;;;;;1826555;77;26317;-29
2021/11/23 22:31:41;;;;;;;0.50;0.50;;;;;;;;;;1844359;77;26346;-29
2021/11/23 22:34:08;;;;;;;0.53;0.53;;;;;;;;;;1840140;77;27674;-29
2021/11/23 22:36:37;;;;;;;0.50;0.50;;;;;;;;;;1829538;77;26322;-29
2021/11/23 22:39:05;;;;;;;0.50;0.50;;;;;;;;;;1842179;77;26264;-29
2021/11/23 22:41:32;;;;;;;0.55;0.55;;;;;;;;;;1840917;77;27739;-29
2021/11/23 22:44:00;;;;;;;0.40;0.40;;;;;;;;;;1844399;77;26296;-29
2021/11/23 22:46:27;;;;;;;0.47;0.47;;;;;;;;;;1842199;77;26983;-30
2021/11/23 22:48:54;;;;;;;0.33;0.33;;;;;;;;;;1834920;77;26354;-30
2021/11/23 22:51:21;;;;;;;0.40;0.40;;;;;;;;;;1844671;77;26291;-29
2021/11/23 22:53:49;;;;;;;0.40;0.40;;;;;;;;;;1842087;77;26362;-29
2021/11/23 22:56:16;;;;;;;0.45;0.45;;;;;;;;;;1841140;77;26342;-29
2021/11/23 22:58:44;;;;;;;0.47;0.47;;;;;;;;;;1840534;77;26273;-29
2021/11/23 23:01:12;;;;;;;0.60;0.60;;;;;;;;;;1839219;77;27302;-29
2021/11/23 23:03:40;;;;;;;0.40;0.40;;;;;;;;;;1839730;77;26625;-29
2021/11/23 23:06:08;;;;;;;0.40;0.40;;;;;;;;;;1832386;77;26318;-28
2021/11/23 23:08:36;;;;;;;0.50;0.50;;;;;;;;;;1831554;77;26218;-30
2021/11/23 23:11:04;;;;;;;1.32;0.30;;;;;;;;;;1840603;77;26387;-29
2021/11/23 23:13:32;;;;;;;0.50;0.50;;;;;;;;;;1832192;77;26659;-29
2021/11/23 23:15:59;;;;;;;0.65;0.40;;;;;;;;;;1835177;77;26284;-29
2021/11/23 23:18:27;;;;;;;0.40;0.40;;;;;;;;;;1842687;76;26740;-29
2021/11/23 23:20:54;;;;;;;0.90;0.40;;;;;;;;;;1829209;77;26384;-29
2021/11/23 23:23:22;;;;;;;0.40;0.40;;;;;;;;;;1844878;77;26363;-29
2021/11/23 23:25:50;;;;;;;1.00;0.30;;;;;;;;;;1826862;77;26347;-29
2021/11/23 23:28:20;;;;;;;0.40;0.40;;;;;;;;;;1831861;77;26307;-30
2021/11/23 23:30:49;;;;;;;0.45;0.45;;;;;;;;;;1843168;77;26866;-29
2021/11/23 23:33:23;;;;;;;0.20;0.20;;;;;;;;;;1845468;77;26883;-29
2021/11/23 23:35:52;;;;;;;1.22;0.30;;;;;;;;;;1844335;77;26397;-28
2021/11/23 23:38:21;;;;;;;0.20;0.20;;;;;;;;;;1843936;77;27340;-29
2021/11/23 23:40:49;;;;;;;0.30;0.30;;;;;;;;;;1838040;77;26686;-30
2021/11/23 23:43:17;;;;;;;0.33;0.30;;;;;;;;;;1819772;77;26272;-29
2021/11/23 23:45:44;;;;;;;0.15;0.15;;;;;;;;;;1844227;77;26814;-29
2021/11/23 23:48:11;;;;;;;0.50;0.50;;;;;;;;;;1828813;77;26375;-28
2021/11/23 23:50:39;;;;;;;0.30;0.30;;;;;;;;;;1837842;77;26372;-28
2021/11/23 23:53:06;;;;;;;0.13;0.13;;;;;;;;;;1834217;77;26346;-29
2021/11/23 23:55:34;;;;;;;0.30;0.30;;;;;;;;;;1844644;77;26668;-28
2021/11/23 23:58:01;;;;;;;0.30;0.30;;;;;;;;;;1832506;77;26332;-29
